sensor_id;sensor_type;location;lat;lon;timestamp;pressure;altitude;pressure_sealevel;temperature
69420;BMP280;56612;52.030;113.524;2023-03-16T00:01:40;94172.34;;;-7.61
69420;BMP280;56612;52.030;113.524;2023-03-16T00:04:44;94174.97;;;-7.48
69420;BMP280;56612;52.030;113.524;2023-03-16T00:07:49;94176.78;;;-7.42
69420;BMP280;56612;52.030;113.524;2023-03-16T00:10:53;94175.00;;;-7.66
69420;BMP280;56612;52.030;113.524;2023-03-16T00:13:57;94176.19;;;-7.49
69420;BMP280;56612;52.030;113.524;2023-03-16T00:17:00;94179.34;;;-7.24
69420;BMP280;56612;52.030;113.524;2023-03-16T00:20:09;94173.94;;;-7.07
69420;BMP280;56612;52.030;113.524;2023-03-16T00:23:13;94179.47;;;-6.84
69420;BMP280;56612;52.030;113.524;2023-03-16T00:26:17;94176.34;;;-6.96
69420;BMP280;56612;52.030;113.524;2023-03-16T00:29:21;94178.56;;;-6.86
69420;BMP280;56612;52.030;113.524;2023-03-16T00:32:33;94184.16;;;-6.96
69420;BMP280;56612;52.030;113.524;2023-03-16T00:35:36;94187.88;;;-6.78
69420;BMP280;56612;52.030;113.524;2023-03-16T00:38:41;94183.56;;;-6.62
69420;BMP280;56612;52.030;113.524;2023-03-16T00:41:48;94190.16;;;-6.87
69420;BMP280;56612;52.030;113.524;2023-03-16T00:44:56;94184.06;;;-6.77
69420;BMP280;56612;52.030;113.524;2023-03-16T00:48:01;94172.88;;;-6.58
69420;BMP280;56612;52.030;113.524;2023-03-16T00:51:07;94182.81;;;-6.57
69420;BMP280;56612;52.030;113.524;2023-03-16T00:54:11;94190.97;;;-6.26
69420;BMP280;56612;52.030;113.524;2023-03-16T00:57:17;94177.16;;;-6.21
69420;BMP280;56612;52.030;113.524;2023-03-16T01:00:21;94176.09;;;-6.65
69420;BMP280;56612;52.030;113.524;2023-03-16T01:03:29;94174.13;;;-6.46
69420;BMP280;56612;52.030;113.524;2023-03-16T01:06:32;94180.88;;;-6.17
69420;BMP280;56612;52.030;113.524;2023-03-16T01:09:40;94184.28;;;-5.74
69420;BMP280;56612;52.030;113.524;2023-03-16T01:12:45;94186.97;;;-5.46
69420;BMP280;56612;52.030;113.524;2023-03-16T01:15:50;94198.66;;;-4.76
69420;BMP280;56612;52.030;113.524;2023-03-16T01:18:54;94198.91;;;-3.94
69420;BMP280;56612;52.030;113.524;2023-03-16T01:22:04;94184.47;;;-3.88
69420;BMP280;56612;52.030;113.524;2023-03-16T01:25:11;94185.81;;;-4.02
69420;BMP280;56612;52.030;113.524;2023-03-16T01:28:15;94181.09;;;-3.37
69420;BMP280;56612;52.030;113.524;2023-03-16T01:31:21;94188.44;;;-2.34
69420;BMP280;56612;52.030;113.524;2023-03-16T01:34:26;94188.78;;;-1.90
69420;BMP280;56612;52.030;113.524;2023-03-16T01:37:30;94191.63;;;-1.63
69420;BMP280;56612;52.030;113.524;2023-03-16T01:40:46;94194.31;;;-1.46
69420;BMP280;56612;52.030;113.524;2023-03-16T01:43:52;94190.28;;;-2.12
69420;BMP280;56612;52.030;113.524;2023-03-16T01:47:01;94192.31;;;-1.95
69420;BMP280;56612;52.030;113.524;2023-03-16T01:50:05;94192.91;;;-1.72
69420;BMP280;56612;52.030;113.524;2023-03-16T01:53:12;94195.00;;;-1.20
69420;BMP280;56612;52.030;113.524;2023-03-16T01:56:21;94185.94;;;-1.02
69420;BMP280;56612;52.030;113.524;2023-03-16T01:59:31;94194.94;;;-1.37
69420;BMP280;56612;52.030;113.524;2023-03-16T02:02:38;94189.63;;;-1.05
69420;BMP280;56612;52.030;113.524;2023-03-16T02:05:53;94194.56;;;-1.09
69420;BMP280;56612;52.030;113.524;2023-03-16T02:08:59;94174.91;;;-0.48
69420;BMP280;56612;52.030;113.524;2023-03-16T02:12:04;94165.31;;;-0.19
69420;BMP280;56612;52.030;113.524;2023-03-16T02:15:13;94165.16;;;0.43
69420;BMP280;56612;52.030;113.524;2023-03-16T02:18:18;94161.91;;;0.81
69420;BMP280;56612;52.030;113.524;2023-03-16T02:24:29;94167.34;;;1.70
69420;BMP280;56612;52.030;113.524;2023-03-16T02:27:45;94159.69;;;2.55
69420;BMP280;56612;52.030;113.524;2023-03-16T02:30:51;94164.78;;;2.84
69420;BMP280;56612;52.030;113.524;2023-03-16T02:33:56;94159.47;;;2.11
69420;BMP280;56612;52.030;113.524;2023-03-16T02:37:02;94168.09;;;2.32
69420;BMP280;56612;52.030;113.524;2023-03-16T02:43:30;94156.19;;;1.91
69420;BMP280;56612;52.030;113.524;2023-03-16T02:46:47;94156.94;;;2.13
69420;BMP280;56612;52.030;113.524;2023-03-16T02:49:51;94151.16;;;2.35
69420;BMP280;56612;52.030;113.524;2023-03-16T02:52:55;94150.44;;;4.10
69420;BMP280;56612;52.030;113.524;2023-03-16T02:55:59;94135.50;;;5.51
69420;BMP280;56612;52.030;113.524;2023-03-16T02:59:08;94125.28;;;4.58
69420;BMP280;56612;52.030;113.524;2023-03-16T03:02:12;94130.44;;;5.30
69420;BMP280;56612;52.030;113.524;2023-03-16T03:05:17;94145.31;;;6.56
69420;BMP280;56612;52.030;113.524;2023-03-16T03:08:21;94132.66;;;6.84
69420;BMP280;56612;52.030;113.524;2023-03-16T03:11:27;94127.00;;;6.92
69420;BMP280;56612;52.030;113.524;2023-03-16T03:14:31;94120.69;;;6.56
69420;BMP280;56612;52.030;113.524;2023-03-16T03:17:40;94123.91;;;6.82
69420;BMP280;56612;52.030;113.524;2023-03-16T03:20:45;94124.03;;;7.76
69420;BMP280;56612;52.030;113.524;2023-03-16T03:23:51;94117.28;;;7.91
69420;BMP280;56612;52.030;113.524;2023-03-16T03:26:55;94119.25;;;8.06
69420;BMP280;56612;52.030;113.524;2023-03-16T03:29:58;94108.56;;;8.22
69420;BMP280;56612;52.030;113.524;2023-03-16T03:33:03;94097.66;;;8.67
69420;BMP280;56612;52.030;113.524;2023-03-16T03:36:06;94102.38;;;8.51
69420;BMP280;56612;52.030;113.524;2023-03-16T03:39:11;94108.25;;;8.14
69420;BMP280;56612;52.030;113.524;2023-03-16T03:42:15;94107.16;;;8.03
69420;BMP280;56612;52.030;113.524;2023-03-16T03:45:19;94095.78;;;9.45
69420;BMP280;56612;52.030;113.524;2023-03-16T03:48:26;94096.59;;;10.09
69420;BMP280;56612;52.030;113.524;2023-03-16T03:51:31;94094.81;;;10.59
69420;BMP280;56612;52.030;113.524;2023-03-16T03:54:46;94092.97;;;11.35
69420;BMP280;56612;52.030;113.524;2023-03-16T03:57:51;94080.25;;;11.36
69420;BMP280;56612;52.030;113.524;2023-03-16T04:00:55;94077.97;;;10.78
69420;BMP280;56612;52.030;113.524;2023-03-16T04:03:58;94079.63;;;10.66
69420;BMP280;56612;52.030;113.524;2023-03-16T04:07:02;94076.06;;;11.29
69420;BMP280;56612;52.030;113.524;2023-03-16T04:10:06;94064.16;;;11.59
69420;BMP280;56612;52.030;113.524;2023-03-16T04:13:15;94063.97;;;11.27
69420;BMP280;56612;52.030;113.524;2023-03-16T04:16:19;94062.06;;;10.58
69420;BMP280;56612;52.030;113.524;2023-03-16T04:19:27;94045.97;;;9.91
69420;BMP280;56612;52.030;113.524;2023-03-16T04:22:31;94046.16;;;8.98
69420;BMP280;56612;52.030;113.524;2023-03-16T04:25:34;94041.34;;;8.94
69420;BMP280;56612;52.030;113.524;2023-03-16T04:28:42;94039.06;;;8.67
69420;BMP280;56612;52.030;113.524;2023-03-16T04:31:49;94048.47;;;9.65
69420;BMP280;56612;52.030;113.524;2023-03-16T04:34:57;94032.94;;;10.69
69420;BMP280;56612;52.030;113.524;2023-03-16T04:38:12;94025.53;;;10.43
69420;BMP280;56612;52.030;113.524;2023-03-16T04:41:26;94032.84;;;12.56
69420;BMP280;56612;52.030;113.524;2023-03-16T04:44:35;94026.13;;;12.23
69420;BMP280;56612;52.030;113.524;2023-03-16T04:47:48;94023.78;;;10.52
69420;BMP280;56612;52.030;113.524;2023-03-16T04:50:54;94017.84;;;11.83
69420;BMP280;56612;52.030;113.524;2023-03-16T04:53:59;94010.94;;;10.24
69420;BMP280;56612;52.030;113.524;2023-03-16T04:57:07;94009.97;;;10.38
69420;BMP280;56612;52.030;113.524;2023-03-16T05:00:20;94007.16;;;11.29
69420;BMP280;56612;52.030;113.524;2023-03-16T05:03:36;93996.38;;;11.53
69420;BMP280;56612;52.030;113.524;2023-03-16T05:06:41;93998.16;;;11.16
69420;BMP280;56612;52.030;113.524;2023-03-16T05:09:46;94007.94;;;11.08
69420;BMP280;56612;52.030;113.524;2023-03-16T05:12:50;93993.59;;;12.07
69420;BMP280;56612;52.030;113.524;2023-03-16T05:15:54;93977.03;;;11.29
69420;BMP280;56612;52.030;113.524;2023-03-16T05:19:05;93976.03;;;9.97
69420;BMP280;56612;52.030;113.524;2023-03-16T05:22:10;93971.97;;;11.67
69420;BMP280;56612;52.030;113.524;2023-03-16T05:25:25;93968.00;;;10.18
69420;BMP280;56612;52.030;113.524;2023-03-16T05:28:31;93965.09;;;8.85
69420;BMP280;56612;52.030;113.524;2023-03-16T05:31:38;93963.78;;;10.33
69420;BMP280;56612;52.030;113.524;2023-03-16T05:34:48;93959.72;;;14.14
69420;BMP280;56612;52.030;113.524;2023-03-16T05:37:53;93960.97;;;14.61
69420;BMP280;56612;52.030;113.524;2023-03-16T05:40:57;93955.91;;;15.68
69420;BMP280;56612;52.030;113.524;2023-03-16T05:44:31;93956.75;;;14.44
69420;BMP280;56612;52.030;113.524;2023-03-16T05:47:46;93952.44;;;17.13
69420;BMP280;56612;52.030;113.524;2023-03-16T05:50:51;93954.16;;;16.11
69420;BMP280;56612;52.030;113.524;2023-03-16T05:54:01;93948.59;;;15.84
69420;BMP280;56612;52.030;113.524;2023-03-16T05:57:11;93941.59;;;15.45
69420;BMP280;56612;52.030;113.524;2023-03-16T06:00:17;93930.06;;;17.87
69420;BMP280;56612;52.030;113.524;2023-03-16T06:03:28;93945.94;;;19.66
69420;BMP280;56612;52.030;113.524;2023-03-16T06:06:33;93936.34;;;15.65
69420;BMP280;56612;52.030;113.524;2023-03-16T06:09:42;93923.03;;;10.82
69420;BMP280;56612;52.030;113.524;2023-03-16T06:12:49;93915.22;;;12.72
69420;BMP280;56612;52.030;113.524;2023-03-16T06:15:55;93907.16;;;12.04
69420;BMP280;56612;52.030;113.524;2023-03-16T06:18:59;93902.06;;;11.54
69420;BMP280;56612;52.030;113.524;2023-03-16T06:22:04;93912.59;;;9.73
69420;BMP280;56612;52.030;113.524;2023-03-16T06:25:10;93918.97;;;9.01
69420;BMP280;56612;52.030;113.524;2023-03-16T06:28:16;93911.00;;;12.61
69420;BMP280;56612;52.030;113.524;2023-03-16T06:31:20;93915.28;;;17.01
69420;BMP280;56612;52.030;113.524;2023-03-16T06:34:24;93917.78;;;18.19
69420;BMP280;56612;52.030;113.524;2023-03-16T06:37:29;93920.03;;;17.37
69420;BMP280;56612;52.030;113.524;2023-03-16T06:40:36;93911.13;;;14.54
69420;BMP280;56612;52.030;113.524;2023-03-16T06:43:40;93898.94;;;16.32
69420;BMP280;56612;52.030;113.524;2023-03-16T06:46:45;93897.63;;;16.41
69420;BMP280;56612;52.030;113.524;2023-03-16T06:49:49;93909.19;;;16.82
69420;BMP280;56612;52.030;113.524;2023-03-16T06:52:57;93892.28;;;16.58
69420;BMP280;56612;52.030;113.524;2023-03-16T06:56:05;93890.69;;;14.93
69420;BMP280;56612;52.030;113.524;2023-03-16T06:59:12;93885.75;;;12.74
69420;BMP280;56612;52.030;113.524;2023-03-16T07:02:18;93886.56;;;13.67
69420;BMP280;56612;52.030;113.524;2023-03-16T07:05:22;93889.06;;;15.46
69420;BMP280;56612;52.030;113.524;2023-03-16T07:08:26;93895.94;;;15.69
69420;BMP280;56612;52.030;113.524;2023-03-16T07:11:30;93891.53;;;17.93
69420;BMP280;56612;52.030;113.524;2023-03-16T07:14:34;93892.00;;;20.50
69420;BMP280;56612;52.030;113.524;2023-03-16T07:17:39;93890.34;;;19.63
69420;BMP280;56612;52.030;113.524;2023-03-16T07:20:43;93900.19;;;20.93
69420;BMP280;56612;52.030;113.524;2023-03-16T07:23:46;93899.28;;;22.79
69420;BMP280;56612;52.030;113.524;2023-03-16T07:26:55;93910.16;;;21.48
69420;BMP280;56612;52.030;113.524;2023-03-16T07:30:04;93896.16;;;22.36
69420;BMP280;56612;52.030;113.524;2023-03-16T07:33:10;93888.47;;;22.14
69420;BMP280;56612;52.030;113.524;2023-03-16T07:36:13;93894.66;;;22.10
69420;BMP280;56612;52.030;113.524;2023-03-16T07:39:23;93888.69;;;19.23
69420;BMP280;56612;52.030;113.524;2023-03-16T07:42:33;93894.38;;;17.30
69420;BMP280;56612;52.030;113.524;2023-03-16T07:45:50;93887.81;;;18.59
69420;BMP280;56612;52.030;113.524;2023-03-16T07:48:54;93890.50;;;19.49
69420;BMP280;56612;52.030;113.524;2023-03-16T07:51:57;93896.00;;;20.04
69420;BMP280;56612;52.030;113.524;2023-03-16T07:55:09;93877.94;;;18.05
69420;BMP280;56612;52.030;113.524;2023-03-16T07:58:15;93877.31;;;16.16
69420;BMP280;56612;52.030;113.524;2023-03-16T08:01:19;93887.00;;;15.38
69420;BMP280;56612;52.030;113.524;2023-03-16T08:04:25;93865.72;;;14.20
69420;BMP280;56612;52.030;113.524;2023-03-16T08:07:28;93875.50;;;14.53
69420;BMP280;56612;52.030;113.524;2023-03-16T08:10:42;93874.13;;;16.88
69420;BMP280;56612;52.030;113.524;2023-03-16T08:13:50;93865.31;;;17.24
69420;BMP280;56612;52.030;113.524;2023-03-16T08:17:04;93860.50;;;13.78
69420;BMP280;56612;52.030;113.524;2023-03-16T08:20:09;93856.72;;;11.94
69420;BMP280;56612;52.030;113.524;2023-03-16T08:23:15;93853.63;;;12.40
69420;BMP280;56612;52.030;113.524;2023-03-16T08:26:20;93859.16;;;15.05
69420;BMP280;56612;52.030;113.524;2023-03-16T08:29:29;93849.78;;;12.51
69420;BMP280;56612;52.030;113.524;2023-03-16T08:32:32;93842.94;;;11.44
69420;BMP280;56612;52.030;113.524;2023-03-16T08:35:40;93842.34;;;14.32
69420;BMP280;56612;52.030;113.524;2023-03-16T08:38:45;93836.13;;;14.86
69420;BMP280;56612;52.030;113.524;2023-03-16T08:42:10;93847.34;;;14.62
69420;BMP280;56612;52.030;113.524;2023-03-16T08:45:24;93818.78;;;12.40
69420;BMP280;56612;52.030;113.524;2023-03-16T08:48:28;93815.50;;;13.28
69420;BMP280;56612;52.030;113.524;2023-03-16T08:51:31;93813.00;;;13.92
69420;BMP280;56612;52.030;113.524;2023-03-16T08:54:35;93801.25;;;12.73
69420;BMP280;56612;52.030;113.524;2023-03-16T08:57:39;93805.06;;;13.02
69420;BMP280;56612;52.030;113.524;2023-03-16T09:00:42;93803.06;;;12.24
69420;BMP280;56612;52.030;113.524;2023-03-16T09:03:48;93797.78;;;10.45
69420;BMP280;56612;52.030;113.524;2023-03-16T09:06:53;93813.03;;;9.69
69420;BMP280;56612;52.030;113.524;2023-03-16T09:10:10;93816.66;;;9.55
69420;BMP280;56612;52.030;113.524;2023-03-16T09:13:17;93813.06;;;9.25
69420;BMP280;56612;52.030;113.524;2023-03-16T09:16:21;93810.44;;;8.83
69420;BMP280;56612;52.030;113.524;2023-03-16T09:19:27;93816.63;;;8.90
69420;BMP280;56612;52.030;113.524;2023-03-16T09:22:49;93811.00;;;8.60
69420;BMP280;56612;52.030;113.524;2023-03-16T09:25:58;93811.81;;;8.45
69420;BMP280;56612;52.030;113.524;2023-03-16T09:29:02;93808.09;;;8.14
69420;BMP280;56612;52.030;113.524;2023-03-16T09:32:09;93806.16;;;7.97
69420;BMP280;56612;52.030;113.524;2023-03-16T09:35:11;93791.31;;;7.54
69420;BMP280;56612;52.030;113.524;2023-03-16T09:38:15;93797.91;;;6.84
69420;BMP280;56612;52.030;113.524;2023-03-16T09:41:44;93798.94;;;6.77
69420;BMP280;56612;52.030;113.524;2023-03-16T09:48:28;93797.53;;;5.23
69420;BMP280;56612;52.030;113.524;2023-03-16T09:57:59;93788.59;;;4.20
69420;BMP280;56612;52.030;113.524;2023-03-16T10:04:42;93782.00;;;3.56
69420;BMP280;56612;52.030;113.524;2023-03-16T10:08:20;93785.91;;;3.18
69420;BMP280;56612;52.030;113.524;2023-03-16T10:11:32;93781.09;;;3.15
69420;BMP280;56612;52.030;113.524;2023-03-16T10:17:52;93777.69;;;2.77
69420;BMP280;56612;52.030;113.524;2023-03-16T10:20:56;93771.53;;;2.61
69420;BMP280;56612;52.030;113.524;2023-03-16T10:24:01;93777.25;;;2.57
69420;BMP280;56612;52.030;113.524;2023-03-16T10:27:13;93793.06;;;2.57
69420;BMP280;56612;52.030;113.524;2023-03-16T10:30:29;93785.59;;;2.42
69420;BMP280;56612;52.030;113.524;2023-03-16T10:33:35;93787.56;;;2.53
69420;BMP280;56612;52.030;113.524;2023-03-16T10:36:43;93790.91;;;2.54
69420;BMP280;56612;52.030;113.524;2023-03-16T10:39:47;93796.84;;;2.43
69420;BMP280;56612;52.030;113.524;2023-03-16T10:42:52;93799.34;;;2.29
69420;BMP280;56612;52.030;113.524;2023-03-16T10:46:00;93794.50;;;2.14
69420;BMP280;56612;52.030;113.524;2023-03-16T10:49:05;93796.34;;;2.11
69420;BMP280;56612;52.030;113.524;2023-03-16T10:55:42;93803.13;;;1.60
69420;BMP280;56612;52.030;113.524;2023-03-16T10:58:47;93803.25;;;1.40
69420;BMP280;56612;52.030;113.524;2023-03-16T11:01:51;93799.09;;;1.26
69420;BMP280;56612;52.030;113.524;2023-03-16T11:04:55;93794.50;;;1.05
69420;BMP280;56612;52.030;113.524;2023-03-16T11:11:31;93799.19;;;1.06
69420;BMP280;56612;52.030;113.524;2023-03-16T11:14:36;93788.56;;;0.95
69420;BMP280;56612;52.030;113.524;2023-03-16T11:17:44;93793.91;;;1.06
69420;BMP280;56612;52.030;113.524;2023-03-16T11:20:50;93799.25;;;1.18
69420;BMP280;56612;52.030;113.524;2023-03-16T11:23:55;93789.25;;;1.26
69420;BMP280;56612;52.030;113.524;2023-03-16T11:27:03;93799.25;;;1.18
69420;BMP280;56612;52.030;113.524;2023-03-16T11:30:18;93788.16;;;1.20
69420;BMP280;56612;52.030;113.524;2023-03-16T11:33:25;93801.53;;;1.02
69420;BMP280;56612;52.030;113.524;2023-03-16T11:36:42;93793.91;;;1.06
69420;BMP280;56612;52.030;113.524;2023-03-16T11:39:53;93804.63;;;0.99
69420;BMP280;56612;52.030;113.524;2023-03-16T12:03:49;93814.84;;;0.73
69420;BMP280;56612;52.030;113.524;2023-03-16T12:10:37;93814.88;;;0.64
69420;BMP280;56612;52.030;113.524;2023-03-16T12:13:56;93812.19;;;0.73
69420;BMP280;56612;52.030;113.524;2023-03-16T12:20:37;93815.41;;;0.62
69420;BMP280;56612;52.030;113.524;2023-03-16T12:23:52;93804.75;;;0.60
69420;BMP280;56612;52.030;113.524;2023-03-16T12:26:58;93806.13;;;0.61
69420;BMP280;56612;52.030;113.524;2023-03-16T12:40:42;93801.84;;;0.66
69420;BMP280;56612;52.030;113.524;2023-03-16T12:44:12;93805.88;;;0.57
69420;BMP280;56612;52.030;113.524;2023-03-16T12:50:25;93797.75;;;0.43
69420;BMP280;56612;52.030;113.524;2023-03-16T12:57:06;93797.69;;;0.22
69420;BMP280;56612;52.030;113.524;2023-03-16T13:00:12;93799.34;;;0.08
69420;BMP280;56612;52.030;113.524;2023-03-16T13:03:20;93799.78;;;-0.06
69420;BMP280;56612;52.030;113.524;2023-03-16T13:06:31;93793.03;;;-0.09
69420;BMP280;56612;52.030;113.524;2023-03-16T13:09:44;93794.41;;;-0.17
69420;BMP280;56612;52.030;113.524;2023-03-16T13:12:48;93794.97;;;-0.19
69420;BMP280;56612;52.030;113.524;2023-03-16T13:16:07;93799.94;;;-0.23
69420;BMP280;56612;52.030;113.524;2023-03-16T13:19:23;93798.41;;;-0.26
69420;BMP280;56612;52.030;113.524;2023-03-16T13:22:41;93784.13;;;-0.42
69420;BMP280;56612;52.030;113.524;2023-03-16T13:26:09;93808.63;;;-0.40
69420;BMP280;56612;52.030;113.524;2023-03-16T13:32:31;93803.91;;;-0.61
69420;BMP280;56612;52.030;113.524;2023-03-16T13:35:36;93800.03;;;-0.60
69420;BMP280;56612;52.030;113.524;2023-03-16T13:38:42;93808.72;;;-0.67
69420;BMP280;56612;52.030;113.524;2023-03-16T13:42:02;93813.97;;;-0.67
69420;BMP280;56612;52.030;113.524;2023-03-16T13:45:13;93805.94;;;-0.69
69420;BMP280;56612;52.030;113.524;2023-03-16T13:48:17;93797.38;;;-0.69
69420;BMP280;56612;52.030;113.524;2023-03-16T13:51:20;93802.06;;;-0.77
69420;BMP280;56612;52.030;113.524;2023-03-16T13:54:28;93809.81;;;-0.79
69420;BMP280;56612;52.030;113.524;2023-03-16T13:57:37;93807.88;;;-0.79
69420;BMP280;56612;52.030;113.524;2023-03-16T14:00:42;93810.75;;;-0.84
69420;BMP280;56612;52.030;113.524;2023-03-16T14:03:48;93807.19;;;-0.79
69420;BMP280;56612;52.030;113.524;2023-03-16T14:06:57;93802.72;;;-0.87
69420;BMP280;56612;52.030;113.524;2023-03-16T14:10:00;93799.94;;;-0.98
69420;BMP280;56612;52.030;113.524;2023-03-16T14:16:31;93802.00;;;-1.06
69420;BMP280;56612;52.030;113.524;2023-03-16T14:19:39;93802.97;;;-1.02
69420;BMP280;56612;52.030;113.524;2023-03-16T14:22:50;93805.16;;;-1.08
69420;BMP280;56612;52.030;113.524;2023-03-16T14:25:55;93812.88;;;-1.10
69420;BMP280;56612;52.030;113.524;2023-03-16T14:29:06;93821.44;;;-1.09
69420;BMP280;56612;52.030;113.524;2023-03-16T14:32:28;93819.97;;;-1.03
69420;BMP280;56612;52.030;113.524;2023-03-16T14:35:39;93825.91;;;-1.02
69420;BMP280;56612;52.030;113.524;2023-03-16T14:38:45;93823.69;;;-0.96
69420;BMP280;56612;52.030;113.524;2023-03-16T14:41:54;93820.13;;;-0.91
69420;BMP280;56612;52.030;113.524;2023-03-16T14:44:58;93818.88;;;-0.90
69420;BMP280;56612;52.030;113.524;2023-03-16T14:48:05;93821.38;;;-0.92
69420;BMP280;56612;52.030;113.524;2023-03-16T14:51:12;93830.34;;;-0.86
69420;BMP280;56612;52.030;113.524;2023-03-16T14:54:20;93826.47;;;-0.84
69420;BMP280;56612;52.030;113.524;2023-03-16T14:57:27;93824.00;;;-0.92
69420;BMP280;56612;52.030;113.524;2023-03-16T15:00:31;93836.66;;;-0.98
69420;BMP280;56612;52.030;113.524;2023-03-16T15:03:51;93828.91;;;-1.06
69420;BMP280;56612;52.030;113.524;2023-03-16T15:06:56;93828.06;;;-1.08
69420;BMP280;56612;52.030;113.524;2023-03-16T15:13:14;93833.13;;;-1.20
69420;BMP280;56612;52.030;113.524;2023-03-16T15:16:35;93827.78;;;-1.39
69420;BMP280;56612;52.030;113.524;2023-03-16T15:19:40;93829.97;;;-1.46
69420;BMP280;56612;52.030;113.524;2023-03-16T15:22:43;93827.34;;;-1.46
69420;BMP280;56612;52.030;113.524;2023-03-16T15:25:48;93822.34;;;-1.51
69420;BMP280;56612;52.030;113.524;2023-03-16T15:28:55;93823.03;;;-1.51
69420;BMP280;56612;52.030;113.524;2023-03-16T15:32:00;93831.34;;;-1.45
69420;BMP280;56612;52.030;113.524;2023-03-16T15:35:03;93825.94;;;-1.47
69420;BMP280;56612;52.030;113.524;2023-03-16T15:38:14;93829.81;;;-1.48
69420;BMP280;56612;52.030;113.524;2023-03-16T15:41:18;93827.88;;;-1.47
69420;BMP280;56612;52.030;113.524;2023-03-16T15:44:22;93829.16;;;-1.38
69420;BMP280;56612;52.030;113.524;2023-03-16T15:47:26;93832.47;;;-1.38
69420;BMP280;56612;52.030;113.524;2023-03-16T15:50:30;93820.47;;;-1.41
69420;BMP280;56612;52.030;113.524;2023-03-16T15:53:46;93818.38;;;-1.42
69420;BMP280;56612;52.030;113.524;2023-03-16T15:56:53;93817.66;;;-1.53
69420;BMP280;56612;52.030;113.524;2023-03-16T15:59:58;93815.75;;;-1.69
69420;BMP280;56612;52.030;113.524;2023-03-16T16:03:09;93814.91;;;-1.72
69420;BMP280;56612;52.030;113.524;2023-03-16T16:06:13;93818.00;;;-1.66
69420;BMP280;56612;52.030;113.524;2023-03-16T16:09:18;93825.47;;;-1.62
69420;BMP280;56612;52.030;113.524;2023-03-16T16:12:30;93820.75;;;-1.64
69420;BMP280;56612;52.030;113.524;2023-03-16T16:15:34;93821.75;;;-1.59
69420;BMP280;56612;52.030;113.524;2023-03-16T16:18:39;93826.44;;;-1.58
69420;BMP280;56612;52.030;113.524;2023-03-16T16:21:43;93822.94;;;-1.70
69420;BMP280;56612;52.030;113.524;2023-03-16T16:24:46;93806.09;;;-1.94
69420;BMP280;56612;52.030;113.524;2023-03-16T16:27:50;93814.09;;;-1.92
69420;BMP280;56612;52.030;113.524;2023-03-16T16:30:55;93808.41;;;-1.98
69420;BMP280;56612;52.030;113.524;2023-03-16T16:33:59;93798.44;;;-2.00
69420;BMP280;56612;52.030;113.524;2023-03-16T16:37:03;93794.31;;;-2.03
69420;BMP280;56612;52.030;113.524;2023-03-16T16:40:18;93791.00;;;-2.03
69420;BMP280;56612;52.030;113.524;2023-03-16T16:43:35;93794.72;;;-2.06
69420;BMP280;56612;52.030;113.524;2023-03-16T16:46:40;93792.09;;;-2.06
69420;BMP280;56612;52.030;113.524;2023-03-16T16:49:44;93794.56;;;-2.08
69420;BMP280;56612;52.030;113.524;2023-03-16T16:52:49;93790.94;;;-2.13
69420;BMP280;56612;52.030;113.524;2023-03-16T16:55:54;93791.22;;;-2.09
69420;BMP280;56612;52.030;113.524;2023-03-16T16:59:01;93788.22;;;-2.05
69420;BMP280;56612;52.030;113.524;2023-03-16T17:02:30;93790.22;;;-1.96
69420;BMP280;56612;52.030;113.524;2023-03-16T17:05:34;93797.38;;;-1.96
69420;BMP280;56612;52.030;113.524;2023-03-16T17:08:38;93798.06;;;-1.96
69420;BMP280;56612;52.030;113.524;2023-03-16T17:11:43;93806.31;;;-2.00
69420;BMP280;56612;52.030;113.524;2023-03-16T17:14:48;93794.56;;;-2.08
69420;BMP280;56612;52.030;113.524;2023-03-16T17:18:02;93797.94;;;-2.15
69420;BMP280;56612;52.030;113.524;2023-03-16T17:21:13;93799.72;;;-2.18
69420;BMP280;56612;52.030;113.524;2023-03-16T17:24:18;93796.72;;;-2.14
69420;BMP280;56612;52.030;113.524;2023-03-16T17:27:27;93805.56;;;-2.10
69420;BMP280;56612;52.030;113.524;2023-03-16T17:30:31;93799.88;;;-2.16
69420;BMP280;56612;52.030;113.524;2023-03-16T17:33:35;93802.03;;;-2.22
69420;BMP280;56612;52.030;113.524;2023-03-16T17:36:39;93796.47;;;-2.43
69420;BMP280;56612;52.030;113.524;2023-03-16T17:39:43;93800.63;;;-2.58
69420;BMP280;56612;52.030;113.524;2023-03-16T17:42:48;93794.91;;;-2.64
69420;BMP280;56612;52.030;113.524;2023-03-16T17:45:52;93790.03;;;-2.67
69420;BMP280;56612;52.030;113.524;2023-03-16T17:48:56;93797.34;;;-2.66
69420;BMP280;56612;52.030;113.524;2023-03-16T17:52:20;93797.75;;;-2.69
69420;BMP280;56612;52.030;113.524;2023-03-16T17:55:25;93795.59;;;-2.63
69420;BMP280;56612;52.030;113.524;2023-03-16T17:58:29;93792.78;;;-2.58
69420;BMP280;56612;52.030;113.524;2023-03-16T18:01:33;93807.38;;;-2.54
69420;BMP280;56612;52.030;113.524;2023-03-16T18:04:37;93803.53;;;-2.53
69420;BMP280;56612;52.030;113.524;2023-03-16T18:07:41;93811.53;;;-2.51
69420;BMP280;56612;52.030;113.524;2023-03-16T18:10:47;93816.56;;;-2.46
69420;BMP280;56612;52.030;113.524;2023-03-16T18:13:51;93817.41;;;-2.43
69420;BMP280;56612;52.030;113.524;2023-03-16T18:16:55;93812.31;;;-2.41
69420;BMP280;56612;52.030;113.524;2023-03-16T18:19:59;93809.44;;;-2.28
69420;BMP280;56612;52.030;113.524;2023-03-16T18:23:22;93812.94;;;-2.33
69420;BMP280;56612;52.030;113.524;2023-03-16T18:26:26;93813.41;;;-2.44
69420;BMP280;56612;52.030;113.524;2023-03-16T18:29:29;93803.81;;;-2.67
69420;BMP280;56612;52.030;113.524;2023-03-16T18:32:34;93814.78;;;-2.61
69420;BMP280;56612;52.030;113.524;2023-03-16T18:35:37;93813.56;;;-2.60
69420;BMP280;56612;52.030;113.524;2023-03-16T18:38:48;93803.94;;;-2.57
69420;BMP280;56612;52.030;113.524;2023-03-16T18:41:52;93805.84;;;-2.58
69420;BMP280;56612;52.030;113.524;2023-03-16T18:44:55;93801.84;;;-2.59
69420;BMP280;56612;52.030;113.524;2023-03-16T18:47:59;93792.09;;;-2.58
69420;BMP280;56612;52.030;113.524;2023-03-16T18:51:03;93794.59;;;-2.68
69420;BMP280;56612;52.030;113.524;2023-03-16T18:54:26;93797.31;;;-2.58
69420;BMP280;56612;52.030;113.524;2023-03-16T18:57:30;93792.09;;;-2.58